Time;durP1;ratioP1;P1;durP2;ratioP2;P2;SDS_P1;SDS_P2;PMS_P1;PMS_P2;Temp;Humidity;BMP_temperature;BMP_pressure;BME280_temperature;BME280_humidity;BME280_pressure;Samples;Min_cycle;Max_cycle;Signal;HPM_P1;HPM_P2
2023/12/22 00:00:32;;;;;;;12.40;4.32;;;;;;;5.16;100.00;96107.06;5019292;28;20397;-80
2023/12/22 00:02:58;;;;;;;11.77;4.30;;;;;;;5.21;100.00;96108.94;5026828;28;20401;-80
2023/12/22 00:05:26;;;;;;;11.02;4.43;;;;;;;5.23;100.00;96105.03;5026472;28;20872;-80
2023/12/22 00:07:52;;;;;;;8.18;3.92;;;;;;;5.27;100.00;96082.50;5019259;28;20406;-80
2023/12/22 00:10:18;;;;;;;15.55;5.25;;;;;;;5.32;100.00;96068.63;5032683;28;20886;-80
2023/12/22 00:12:44;;;;;;;16.20;4.78;;;;;;;5.37;100.00;96103.56;5025937;28;20412;-80
2023/12/22 00:15:10;;;;;;;10.98;4.85;;;;;;;5.43;100.00;96107.03;5022399;28;20493;-80
2023/12/22 00:17:36;;;;;;;18.25;5.70;;;;;;;5.46;100.00;96101.28;5023880;28;20480;-80
2023/12/22 00:20:03;;;;;;;14.48;5.18;;;;;;;5.52;100.00;96089.78;5017721;28;20430;-79
2023/12/22 00:22:30;;;;;;;22.17;6.00;;;;;;;5.54;100.00;96094.78;5032500;28;20923;-80
2023/12/22 00:24:56;;;;;;;13.68;5.00;;;;;;;5.57;100.00;96049.66;5026159;28;20504;-80
2023/12/22 00:27:23;;;;;;;16.60;4.88;;;;;;;5.60;100.00;96078.03;5012587;28;20428;-79
2023/12/22 00:29:49;;;;;;;16.88;4.60;;;;;;;5.60;100.00;96072.78;5011779;28;20417;-79
2023/12/22 00:32:15;;;;;;;20.88;5.00;;;;;;;5.59;100.00;96079.88;5012562;28;20799;-79
2023/12/22 00:34:41;;;;;;;19.17;4.93;;;;;;;5.62;100.00;96081.22;5012299;28;20411;-79
2023/12/22 00:37:07;;;;;;;18.02;4.55;;;;;;;5.62;100.00;96110.88;5012767;28;20485;-79
2023/12/22 00:39:35;;;;;;;15.27;4.18;;;;;;;5.63;100.00;96128.22;5016682;28;20403;-80
2023/12/22 00:42:03;;;;;;;16.02;4.35;;;;;;;5.62;100.00;96152.09;5033028;28;20880;-80
2023/12/22 00:44:30;;;;;;;13.48;4.15;;;;;;;5.60;100.00;96141.84;5032068;28;20431;-80
2023/12/22 00:46:56;;;;;;;12.05;4.00;;;;;;;5.58;100.00;96161.47;5012725;28;20404;-80
2023/12/22 00:49:22;;;;;;;18.13;4.63;;;;;;;5.55;100.00;96152.28;5022017;28;20524;-80
2023/12/22 00:51:48;;;;;;;12.02;3.70;;;;;;;5.51;100.00;96166.94;5011656;28;20409;-80
2023/12/22 00:54:14;;;;;;;9.90;3.67;;;;;;;5.50;100.00;96151.44;5026520;28;20399;-80
2023/12/22 00:56:42;;;;;;;11.00;3.75;;;;;;;5.48;100.00;96153.53;5032604;28;20421;-80
2023/12/22 00:59:08;;;;;;;8.48;3.13;;;;;;;5.47;100.00;96175.56;5031552;28;20403;-80
2023/12/22 01:01:34;;;;;;;12.18;4.30;;;;;;;5.46;100.00;96164.28;5017060;28;20401;-80
2023/12/22 01:04:00;;;;;;;13.73;4.15;;;;;;;5.45;100.00;96144.31;5012142;28;20424;-80
2023/12/22 01:06:26;;;;;;;8.18;3.50;;;;;;;5.43;100.00;96152.44;5029254;28;20841;-80
2023/12/22 01:08:53;;;;;;;14.45;4.50;;;;;;;5.42;100.00;96142.97;5018699;28;20399;-79
2023/12/22 01:11:19;;;;;;;14.05;4.32;;;;;;;5.40;100.00;96141.66;5038158;28;20493;-80
2023/12/22 01:13:46;;;;;;;17.42;4.47;;;;;;;5.38;100.00;96133.22;5023914;28;20488;-79
2023/12/22 01:16:12;;;;;;;12.48;3.88;;;;;;;5.36;100.00;96130.06;5016488;28;20400;-79
2023/12/22 01:18:42;;;;;;;9.98;3.72;;;;;;;5.33;100.00;96128.75;5018796;28;20466;-79
2023/12/22 01:21:08;;;;;;;16.85;4.45;;;;;;;5.30;100.00;96125.81;5029562;28;20399;-79
2023/12/22 01:23:34;;;;;;;12.45;4.28;;;;;;;5.30;100.00;96120.56;5022051;28;20411;-78
2023/12/22 01:26:00;;;;;;;16.02;4.70;;;;;;;5.26;100.00;96124.72;5017697;28;20484;-79
2023/12/22 01:28:26;;;;;;;23.35;4.85;;;;;;;5.26;100.00;96135.22;5018680;28;20408;-78
2023/12/22 01:30:54;;;;;;;22.15;5.07;;;;;;;5.26;100.00;96107.13;5017814;28;20401;-80
2023/12/22 01:33:20;;;;;;;14.13;4.28;;;;;;;5.24;100.00;96113.69;5029121;28;20488;-79
2023/12/22 01:35:46;;;;;;;14.60;4.22;;;;;;;5.23;100.00;96107.66;5016515;28;20404;-79
2023/12/22 01:38:12;;;;;;;13.57;3.70;;;;;;;5.21;100.00;96128.09;5034704;28;20410;-78
2023/12/22 01:40:39;;;;;;;8.95;3.47;;;;;;;5.18;100.00;96139.09;5034683;28;20951;-78
2023/12/22 01:43:05;;;;;;;10.18;3.00;;;;;;;5.19;100.00;96150.38;5035229;28;20460;-79
2023/12/22 01:45:31;;;;;;;15.73;3.73;;;;;;;5.15;100.00;96134.31;5022631;28;20412;-79
2023/12/22 01:47:59;;;;;;;8.23;2.70;;;;;;;5.14;100.00;96152.94;5015537;28;20401;-78
2023/12/22 01:50:26;;;;;;;12.65;3.20;;;;;;;5.11;100.00;96164.72;5020129;28;20399;-79
2023/12/22 01:52:53;;;;;;;10.18;2.78;;;;;;;5.15;100.00;96183.38;5018428;28;20403;-79
2023/12/22 01:55:19;;;;;;;7.10;2.60;;;;;;;5.17;100.00;96165.56;5017755;28;20439;-79
2023/12/22 01:57:46;;;;;;;10.38;2.40;;;;;;;5.14;100.00;96184.41;5022919;28;20408;-77
2023/12/22 02:00:14;;;;;;;10.23;2.47;;;;;;;5.13;100.00;96180.19;5026736;28;20424;-78
2023/12/22 02:02:42;;;;;;;5.22;2.10;;;;;;;5.13;100.00;96177.56;5028406;28;20416;-78
2023/12/22 02:05:11;;;;;;;8.87;2.00;;;;;;;5.11;100.00;96179.66;5020852;28;20511;-78
2023/12/22 02:07:39;;;;;;;10.35;2.50;;;;;;;5.06;100.00;96178.56;5014431;28;20431;-78
2023/12/22 02:10:07;;;;;;;9.43;2.30;;;;;;;5.07;100.00;96179.34;5023518;28;20539;-79
2023/12/22 02:12:33;;;;;;;10.45;2.50;;;;;;;5.05;100.00;96169.09;5018643;28;20429;-78
2023/12/22 02:14:59;;;;;;;7.53;2.30;;;;;;;5.05;100.00;96173.53;5018284;28;20504;-78
2023/12/22 02:17:32;;;;;;;11.02;2.60;;;;;;;4.98;100.00;96165.88;5022969;28;20397;-78
2023/12/22 02:19:59;;;;;;;5.20;1.90;;;;;;;4.98;100.00;96165.88;5018140;28;20405;-79
2023/12/22 02:22:33;;;;;;;5.93;2.20;;;;;;;5.01;100.00;96190.81;5026555;28;20578;-78
2023/12/22 02:24:59;;;;;;;9.93;2.42;;;;;;;4.97;100.00;96195.75;5013981;28;20786;-77
2023/12/22 02:27:33;;;;;;;7.88;2.63;;;;;;;5.01;100.00;96182.97;5024657;28;20407;-78
2023/12/22 02:30:05;;;;;;;13.80;2.50;;;;;;;5.01;100.00;96181.13;5016856;28;20423;-78
2023/12/22 02:32:35;;;;;;;7.70;2.30;;;;;;;5.02;100.00;96179.31;5021316;28;20418;-78
2023/12/22 02:35:06;;;;;;;7.50;2.55;;;;;;;5.04;100.00;96204.22;5016182;28;20403;-78
2023/12/22 02:37:35;;;;;;;8.32;2.47;;;;;;;5.05;100.00;96186.66;5017493;28;20866;-78
2023/12/22 02:40:02;;;;;;;11.82;2.65;;;;;;;5.00;100.00;96202.34;5014531;28;20487;-78
2023/12/22 02:42:30;;;;;;;12.48;2.78;;;;;;;5.00;100.00;96200.53;5014593;28;20854;-79
2023/12/22 02:44:57;;;;;;;13.70;2.85;;;;;;;5.04;100.00;96198.97;5014156;28;20444;-78
2023/12/22 02:47:23;;;;;;;12.75;3.00;;;;;;;5.06;100.00;96175.94;5014582;28;20401;-78
2023/12/22 02:49:50;;;;;;;18.23;3.10;;;;;;;5.05;100.00;96161.22;5012808;28;20397;-78
2023/12/22 02:52:16;;;;;;;22.23;3.42;;;;;;;5.05;100.00;96166.47;5030778;28;20399;-78
2023/12/22 02:54:43;;;;;;;12.05;2.75;;;;;;;5.11;100.00;96177.84;5033955;28;20535;-79
2023/12/22 02:57:09;;;;;;;11.70;2.70;;;;;;;5.10;100.00;96157.88;5021352;28;20476;-78
2023/12/22 02:59:37;;;;;;;9.27;2.90;;;;;;;5.10;100.00;96171.00;5031849;28;20449;-78
2023/12/22 03:02:03;;;;;;;12.75;3.10;;;;;;;5.08;100.00;96165.19;5025554;28;20400;-79
2023/12/22 03:04:29;;;;;;;14.45;3.00;;;;;;;5.13;100.00;96182.81;5013843;28;20413;-79
2023/12/22 03:06:56;;;;;;;8.50;2.58;;;;;;;5.11;100.00;96161.31;5028925;28;20405;-79
2023/12/22 03:09:22;;;;;;;13.50;3.20;;;;;;;5.09;100.00;96169.41;5028431;28;20407;-79
2023/12/22 03:11:51;;;;;;;11.43;2.75;;;;;;;5.15;100.00;96175.50;5037734;28;20406;-78
2023/12/22 03:14:17;;;;;;;12.88;3.15;;;;;;;5.15;100.00;96167.63;5022118;28;20408;-78
2023/12/22 03:16:44;;;;;;;12.63;3.05;;;;;;;5.12;100.00;96160.25;5029634;28;20399;-79
2023/12/22 03:19:10;;;;;;;7.68;2.80;;;;;;;5.15;100.00;96152.69;5039331;28;20403;-79
2023/12/22 03:21:36;;;;;;;13.05;2.78;;;;;;;5.18;100.00;96169.78;5020656;28;20407;-78
2023/12/22 03:24:02;;;;;;;9.32;2.58;;;;;;;5.20;100.00;96178.97;5020830;28;20409;-79
2023/12/22 03:26:28;;;;;;;9.18;2.50;;;;;;;5.17;100.00;96179.47;5022678;28;20404;-80
2023/12/22 03:28:56;;;;;;;12.25;2.55;;;;;;;5.18;100.00;96177.63;5023365;28;20411;-80
2023/12/22 03:31:22;;;;;;;13.73;3.00;;;;;;;5.17;100.00;96189.97;5028201;28;20458;-81
2023/12/22 03:33:48;;;;;;;10.23;3.08;;;;;;;5.19;100.00;96180.00;5036109;28;20401;-81
2023/12/22 03:36:14;;;;;;;14.57;2.80;;;;;;;5.18;100.00;96188.94;5029172;28;20900;-80
2023/12/22 03:38:40;;;;;;;10.07;2.50;;;;;;;5.22;100.00;96199.72;5027593;28;21501;-80
2023/12/22 03:41:06;;;;;;;12.82;2.75;;;;;;;5.24;100.00;96198.44;5022225;28;20813;-79
2023/12/22 03:43:33;;;;;;;11.32;2.70;;;;;;;5.24;100.00;96189.78;5024610;28;20905;-80
2023/12/22 03:46:01;;;;;;;13.90;2.77;;;;;;;5.28;100.00;96203.97;5017471;28;20427;-79
2023/12/22 03:48:27;;;;;;;6.60;2.30;;;;;;;5.32;100.00;96189.34;5019526;28;20483;-80
2023/12/22 03:50:53;;;;;;;7.88;2.65;;;;;;;5.33;100.00;96207.47;5026743;28;20401;-80
2023/12/22 03:53:19;;;;;;;11.97;2.90;;;;;;;5.31;100.00;96240.22;5032034;28;20459;-79
2023/12/22 03:55:46;;;;;;;10.30;2.63;;;;;;;5.30;100.00;96220.25;5020463;28;20797;-79
2023/12/22 03:58:12;;;;;;;9.45;2.50;;;;;;;5.21;100.00;96191.03;5019072;28;20779;-79
2023/12/22 04:00:38;;;;;;;15.88;3.17;;;;;;;5.10;100.00;96188.56;5010486;28;20420;-79
2023/12/22 04:03:06;;;;;;;5.57;2.15;;;;;;;5.04;100.00;96195.56;5013326;28;20492;-79
2023/12/22 04:05:32;;;;;;;9.55;2.92;;;;;;;4.98;100.00;96214.91;5013284;28;20414;-79
2023/12/22 04:07:58;;;;;;;10.47;2.93;;;;;;;4.95;100.00;96220.66;5017178;28;20412;-79
2023/12/22 04:10:24;;;;;;;13.02;3.22;;;;;;;4.90;100.00;96213.50;5021399;28;20398;-79
2023/12/22 04:12:50;;;;;;;19.67;3.63;;;;;;;4.87;100.00;96211.38;5026090;28;20407;-79
2023/12/22 04:15:16;;;;;;;17.70;4.15;;;;;;;4.84;100.00;96208.44;5028315;28;20460;-79
2023/12/22 04:17:42;;;;;;;15.98;3.50;;;;;;;4.79;100.00;96237.22;5015246;28;20658;-79
2023/12/22 04:20:10;;;;;;;17.50;3.38;;;;;;;4.76;100.00;96198.38;5018466;28;20410;-79
2023/12/22 04:22:37;;;;;;;23.65;3.90;;;;;;;4.73;100.00;96204.91;5026797;28;20486;-79
2023/12/22 04:25:03;;;;;;;19.00;4.47;;;;;;;4.71;100.00;96206.97;5015738;28;20429;-79
2023/12/22 04:27:29;;;;;;;21.83;4.27;;;;;;;4.68;100.00;96199.59;5012286;28;20931;-79
2023/12/22 04:29:56;;;;;;;22.48;4.18;;;;;;;4.66;100.00;96212.91;5017827;28;20522;-79
2023/12/22 04:32:22;;;;;;;21.03;4.13;;;;;;;4.66;100.00;96206.91;5021635;28;20401;-79
2023/12/22 04:34:48;;;;;;;15.10;3.35;;;;;;;4.65;100.00;96218.44;5024228;28;20443;-79
2023/12/22 04:37:18;;;;;;;13.45;3.35;;;;;;;4.64;100.00;96241.22;5013293;28;20401;-79
2023/12/22 04:39:44;;;;;;;18.88;3.53;;;;;;;4.63;100.00;96223.91;5011539;28;20957;-79
2023/12/22 04:42:10;;;;;;;15.80;3.60;;;;;;;4.64;100.00;96232.56;5014047;28;20413;-79
2023/12/22 04:44:36;;;;;;;11.60;3.10;;;;;;;4.65;100.00;96234.16;5032569;28;20728;-78
2023/12/22 04:47:03;;;;;;;13.63;3.10;;;;;;;4.66;100.00;96215.53;5018612;28;20432;-79
2023/12/22 04:49:29;;;;;;;18.73;3.17;;;;;;;4.70;100.00;96208.00;5027683;28;20407;-79
2023/12/22 04:51:55;;;;;;;13.85;2.70;;;;;;;4.74;100.00;96237.94;5023878;28;20401;-79
2023/12/22 04:54:22;;;;;;;11.67;2.80;;;;;;;4.77;100.00;96215.69;5029330;28;20430;-80
2023/12/22 04:56:48;;;;;;;10.25;2.80;;;;;;;4.78;100.00;96253.97;5021871;28;20401;-79
2023/12/22 04:59:15;;;;;;;14.35;2.70;;;;;;;4.81;100.00;96225.44;5027658;28;20407;-80
2023/12/22 05:01:42;;;;;;;13.23;2.70;;;;;;;4.82;100.00;96221.00;5012819;28;20805;-80
2023/12/22 05:04:09;;;;;;;11.53;2.97;;;;;;;4.82;100.00;96226.22;5012252;28;20968;-80
2023/12/22 05:06:35;;;;;;;13.13;3.35;;;;;;;4.83;100.00;96225.19;5030126;28;20405;-80
2023/12/22 05:09:02;;;;;;;22.10;2.95;;;;;;;4.84;100.00;96232.81;5011824;28;20397;-79
2023/12/22 05:11:30;;;;;;;11.13;2.70;;;;;;;4.88;100.00;96241.00;5019589;28;20404;-78
2023/12/22 05:13:56;;;;;;;12.75;3.40;;;;;;;4.87;100.00;96239.41;5021181;28;20414;-83
2023/12/22 05:16:22;;;;;;;17.20;3.92;;;;;;;4.90;100.00;96258.06;5013955;28;20408;-84
2023/12/22 05:18:48;;;;;;;15.13;3.20;;;;;;;4.93;100.00;96239.25;5025325;28;20438;-85
2023/12/22 05:21:14;;;;;;;22.33;3.72;;;;;;;4.93;100.00;96281.19;5028059;28;20434;-84
2023/12/22 05:23:41;;;;;;;21.48;4.18;;;;;;;4.96;100.00;96258.94;5019822;28;20424;-84
2023/12/22 05:26:08;;;;;;;18.92;3.90;;;;;;;4.97;100.00;96257.88;5021325;28;20994;-85
2023/12/22 05:28:35;;;;;;;18.73;4.35;;;;;;;4.95;100.00;96258.16;5019101;28;20409;-85
2023/12/22 05:31:01;;;;;;;18.45;4.22;;;;;;;5.00;100.00;96268.69;5012290;28;20400;-83
2023/12/22 05:33:27;;;;;;;27.07;4.43;;;;;;;5.02;100.00;96256.16;5018349;28;20852;-84
2023/12/22 05:35:53;;;;;;;29.73;4.72;;;;;;;4.99;100.00;96258.44;5036880;28;20976;-85
2023/12/22 05:38:20;;;;;;;15.10;3.33;;;;;;;4.97;100.00;96273.63;5029985;28;20397;-84
2023/12/22 05:40:46;;;;;;;12.05;3.38;;;;;;;4.93;100.00;96273.34;5019438;28;20405;-85
2023/12/22 05:43:12;;;;;;;18.58;4.18;;;;;;;4.90;100.00;96278.25;5041958;28;20395;-83
2023/12/22 05:45:40;;;;;;;26.42;4.85;;;;;;;4.85;100.00;96279.00;5045028;28;20404;-85
2023/12/22 05:48:07;;;;;;;19.00;3.80;;;;;;;4.83;100.00;96273.19;5035013;28;20468;-82
2023/12/22 05:50:33;;;;;;;17.65;4.18;;;;;;;4.84;100.00;96287.88;5017316;28;20441;-82
2023/12/22 05:52:59;;;;;;;14.60;3.70;;;;;;;4.86;100.00;96295.50;5005770;28;20411;-81
2023/12/22 05:55:25;;;;;;;29.92;4.80;;;;;;;4.85;100.00;96299.16;5011534;28;20409;-81
2023/12/22 05:57:51;;;;;;;25.27;4.82;;;;;;;4.86;100.00;96285.81;5013654;28;20781;-81
2023/12/22 06:00:18;;;;;;;25.48;5.10;;;;;;;4.91;100.00;96306.84;5012256;28;20746;-81
2023/12/22 06:02:45;;;;;;;20.75;4.18;;;;;;;4.97;100.00;96308.50;5015559;28;20467;-81
2023/12/22 06:05:12;;;;;;;20.90;4.15;;;;;;;4.97;100.00;96299.84;5018843;28;20419;-83
2023/12/22 06:07:38;;;;;;;14.93;3.50;;;;;;;5.03;100.00;96310.19;5035028;28;20399;-82
2023/12/22 06:10:04;;;;;;;21.85;4.60;;;;;;;5.06;100.00;96316.75;5018105;28;20906;-83
2023/12/22 06:12:31;;;;;;;21.42;4.13;;;;;;;5.07;100.00;96313.91;5020133;28;20492;-84
2023/12/22 06:14:57;;;;;;;18.25;3.15;;;;;;;5.11;100.00;96321.31;5026270;28;20404;-84
2023/12/22 06:17:23;;;;;;;23.45;4.78;;;;;;;5.08;100.00;96330.44;5043242;28;20410;-81
2023/12/22 06:19:50;;;;;;;21.38;3.63;;;;;;;5.16;100.00;96306.41;5035046;28;20407;-81
2023/12/22 06:22:16;;;;;;;19.90;4.10;;;;;;;5.13;100.00;96314.75;5036755;28;20399;-83
2023/12/22 06:24:43;;;;;;;17.35;3.53;;;;;;;5.18;100.00;96319.28;5038846;28;20418;-83
2023/12/22 06:27:09;;;;;;;25.27;4.38;;;;;;;5.19;100.00;96328.75;5035196;28;20406;-82
2023/12/22 06:29:35;;;;;;;24.75;4.50;;;;;;;5.18;100.00;96337.66;5035109;28;20431;-82
2023/12/22 06:32:01;;;;;;;24.23;4.40;;;;;;;5.21;100.00;96334.53;5034601;28;20804;-81
2023/12/22 06:34:27;;;;;;;16.70;3.93;;;;;;;5.21;100.00;96350.28;5037448;28;20896;-82
2023/12/22 06:36:55;;;;;;;14.85;3.50;;;;;;;5.22;100.00;96354.47;5039189;28;20434;-83
2023/12/22 06:39:21;;;;;;;19.48;4.50;;;;;;;5.23;100.00;96359.50;5037308;28;20403;-83
2023/12/22 06:41:47;;;;;;;16.60;3.60;;;;;;;5.26;100.00;96361.63;5036386;28;20485;-82
2023/12/22 06:44:13;;;;;;;22.83;4.45;;;;;;;5.24;100.00;96365.53;5035819;28;20410;-84
2023/12/22 06:46:39;;;;;;;13.20;3.53;;;;;;;5.26;100.00;96358.22;5036043;28;20954;-85
2023/12/22 06:49:05;;;;;;;13.38;2.90;;;;;;;5.24;100.00;96349.78;5034575;28;20422;-84
2023/12/22 06:51:34;;;;;;;14.13;3.50;;;;;;;5.27;100.00;96384.19;5035593;28;20406;-84
2023/12/22 06:54:04;;;;;;;13.38;3.20;;;;;;;5.27;100.00;96367.66;5036143;28;20403;-83
2023/12/22 06:56:31;;;;;;;16.83;3.60;;;;;;;5.27;100.00;96381.56;5035683;28;20449;-83
2023/12/22 06:58:58;;;;;;;14.10;2.90;;;;;;;5.33;100.00;96372.75;5034303;28;20399;-83
2023/12/22 07:01:28;;;;;;;11.48;3.20;;;;;;;5.35;100.00;96372.50;5034598;28;20397;-84
2023/12/22 07:03:54;;;;;;;11.23;2.53;;;;;;;5.35;100.00;96406.59;5020808;28;20404;-83
2023/12/22 07:06:22;;;;;;;12.77;3.65;;;;;;;5.31;100.00;96376.66;5015670;28;20511;-84
2023/12/22 07:09:17;;;;;;;8.35;2.60;;;;;;;5.31;100.00;96387.16;5015381;28;20440;-83
2023/12/22 07:11:46;;;;;;;17.52;3.78;;;;;;;5.26;100.00;96393.09;5014860;28;20409;-83
2023/12/22 07:14:12;;;;;;;19.75;3.50;;;;;;;5.28;100.00;96393.66;5014730;28;20866;-83
2023/12/22 07:16:39;;;;;;;16.52;3.38;;;;;;;5.31;100.00;96410.75;5014253;28;20471;-83
2023/12/22 07:19:05;;;;;;;10.90;3.00;;;;;;;5.34;100.00;96420.75;5015466;28;20429;-82
2023/12/22 07:21:32;;;;;;;12.63;2.85;;;;;;;5.36;100.00;96408.19;5015147;28;20946;-84
2023/12/22 07:23:58;;;;;;;13.23;3.08;;;;;;;5.32;100.00;96413.16;5014580;28;20397;-81
2023/12/22 07:26:26;;;;;;;10.57;3.33;;;;;;;5.33;100.00;96417.38;5018930;28;20413;-82
2023/12/22 07:28:54;;;;;;;8.75;2.70;;;;;;;5.32;100.00;96417.59;5017411;28;20798;-83
2023/12/22 07:31:20;;;;;;;17.08;3.45;;;;;;;5.31;100.00;96411.56;5015527;28;20421;-83
2023/12/22 07:33:47;;;;;;;14.25;3.00;;;;;;;5.31;100.00;96426.50;5015950;28;20403;-83
2023/12/22 07:36:13;;;;;;;16.88;3.17;;;;;;;5.33;100.00;96442.81;5015417;28;20969;-83
2023/12/22 07:38:39;;;;;;;9.15;2.83;;;;;;;5.36;100.00;96434.44;5014363;28;20444;-84
2023/12/22 07:41:05;;;;;;;18.63;3.95;;;;;;;5.37;100.00;96436.84;5014825;28;20443;-84
2023/12/22 07:43:31;;;;;;;13.55;3.20;;;;;;;5.40;100.00;96435.56;5015150;28;20826;-83
2023/12/22 07:45:59;;;;;;;15.05;3.50;;;;;;;5.39;100.00;96420.84;5015711;28;20420;-83
2023/12/22 07:48:25;;;;;;;7.50;2.60;;;;;;;5.41;100.00;96432.66;5015668;28;20405;-84
2023/12/22 07:50:51;;;;;;;12.13;2.72;;;;;;;5.41;100.00;96426.66;5016576;28;20751;-84
2023/12/22 07:53:17;;;;;;;13.85;3.10;;;;;;;5.39;100.00;96420.84;5014996;28;20908;-81
2023/12/22 07:55:44;;;;;;;12.77;3.38;;;;;;;5.39;100.00;96432.13;5014197;28;20439;-84
2023/12/22 07:58:10;;;;;;;15.80;3.33;;;;;;;5.32;100.00;96415.78;5014909;28;20445;-84
2023/12/22 08:00:36;;;;;;;10.02;2.63;;;;;;;5.26;100.00;96426.44;5014621;28;20424;-82
2023/12/22 08:03:04;;;;;;;9.40;2.70;;;;;;;5.17;100.00;96414.75;5014840;28;20403;-84
2023/12/22 08:05:31;;;;;;;16.73;3.40;;;;;;;5.11;100.00;96431.47;5016417;28;20420;-84
2023/12/22 08:07:57;;;;;;;12.32;2.55;;;;;;;5.05;100.00;96422.69;5016717;28;20405;-85
2023/12/22 08:10:23;;;;;;;14.05;2.60;;;;;;;5.01;100.00;96421.59;5016938;28;20458;-85
2023/12/22 08:12:50;;;;;;;8.30;2.53;;;;;;;4.96;100.00;96418.91;5023667;28;20405;-85
2023/12/22 08:15:16;;;;;;;17.42;3.35;;;;;;;4.93;100.00;96425.41;5026875;28;20468;-84
2023/12/22 08:17:47;;;;;;;10.38;3.00;;;;;;;4.93;100.00;96427.25;5017048;28;20447;-83
2023/12/22 08:20:19;;;;;;;13.13;2.88;;;;;;;4.89;100.00;96437.41;5016857;28;20404;-84
2023/12/22 08:22:45;;;;;;;7.13;2.63;;;;;;;4.88;100.00;96432.41;5032407;28;20482;-85
2023/12/22 08:25:11;;;;;;;10.07;2.72;;;;;;;4.87;100.00;96428.19;5031265;28;20419;-85
2023/12/22 08:27:37;;;;;;;15.20;3.40;;;;;;;4.86;100.00;96431.84;5028811;28;20411;-86
2023/12/22 08:30:04;;;;;;;18.38;3.63;;;;;;;4.86;100.00;96442.34;5013722;28;20396;-84
2023/12/22 08:32:30;;;;;;;23.30;4.25;;;;;;;4.87;100.00;96423.75;5012689;28;20412;-82
2023/12/22 08:34:56;;;;;;;27.52;5.47;;;;;;;4.88;100.00;96400.94;5010962;28;20413;-84
2023/12/22 08:37:24;;;;;;;22.43;4.63;;;;;;;4.88;100.00;96427.97;5012323;28;20405;-84
2023/12/22 08:39:50;;;;;;;25.13;4.75;;;;;;;4.90;100.00;96435.56;5016526;28;20473;-83
2023/12/22 08:42:17;;;;;;;29.60;5.53;;;;;;;4.90;100.00;96418.00;5012439;28;20853;-85
2023/12/22 08:44:43;;;;;;;30.75;5.90;;;;;;;4.93;100.00;96433.28;5017549;28;20431;-86
2023/12/22 08:47:09;;;;;;;18.60;4.47;;;;;;;4.95;100.00;96431.22;5020856;28;20423;-85
2023/12/22 08:49:35;;;;;;;19.00;4.18;;;;;;;4.98;100.00;96416.81;5020454;28;20824;-86
2023/12/22 08:52:03;;;;;;;26.95;5.30;;;;;;;5.01;100.00;96411.91;5015126;28;20889;-85
2023/12/22 08:54:31;;;;;;;37.25;5.25;;;;;;;5.02;100.00;96413.50;5014911;28;20973;-84
2023/12/22 08:56:57;;;;;;;29.73;5.32;;;;;;;5.01;100.00;96414.53;5014447;28;20405;-86
2023/12/22 08:59:23;;;;;;;31.33;5.53;;;;;;;5.02;100.00;96415.31;5014030;28;20400;-86
2023/12/22 09:01:49;;;;;;;31.40;5.00;;;;;;;5.06;100.00;96424.28;5013998;28;20455;-84
2023/12/22 09:04:16;;;;;;;22.33;4.28;;;;;;;5.13;100.00;96422.31;5014030;28;20486;-84
2023/12/22 09:06:42;;;;;;;27.80;5.00;;;;;;;5.19;100.00;96439.69;5011367;28;20397;-83
2023/12/22 09:09:11;;;;;;;24.40;4.45;;;;;;;5.21;100.00;96440.25;5013386;28;20397;-84
2023/12/22 09:11:39;;;;;;;23.42;4.90;;;;;;;5.23;100.00;96448.69;5017284;28;20427;-84
2023/12/22 09:14:09;;;;;;;37.67;5.68;;;;;;;5.23;100.00;96437.41;5016871;28;20884;-84
2023/12/22 09:16:35;;;;;;;30.90;5.03;;;;;;;5.26;100.00;96448.19;5016018;28;20408;-83
2023/12/22 09:19:02;;;;;;;33.47;5.50;;;;;;;5.29;100.00;96446.94;5011716;28;20409;-83
2023/12/22 09:21:28;;;;;;;36.35;5.78;;;;;;;5.29;100.00;96447.72;5007785;28;20898;-83
2023/12/22 09:23:54;;;;;;;35.60;5.93;;;;;;;5.28;100.00;96443.50;5015251;28;20396;-83
2023/12/22 09:26:21;;;;;;;32.42;5.45;;;;;;;5.33;100.00;96434.94;5018558;28;20451;-83
2023/12/22 09:28:49;;;;;;;25.88;4.88;;;;;;;5.33;100.00;96443.59;5016799;28;20408;-84
2023/12/22 09:31:15;;;;;;;33.80;5.57;;;;;;;5.37;100.00;96441.28;5012480;28;20910;-83
2023/12/22 09:33:42;;;;;;;31.63;5.47;;;;;;;5.37;100.00;96444.69;5011182;28;20496;-83
2023/12/22 09:36:09;;;;;;;27.23;4.75;;;;;;;5.45;100.00;96439.03;5010895;28;20438;-84
2023/12/22 09:38:36;;;;;;;26.10;4.72;;;;;;;5.50;100.00;96463.75;5009993;28;20409;-83
2023/12/22 09:41:03;;;;;;;26.42;4.32;;;;;;;5.53;100.00;96448.34;5006081;28;20491;-82
2023/12/22 09:43:32;;;;;;;27.52;5.63;;;;;;;5.56;100.00;96462.81;5014010;28;20416;-83
2023/12/22 09:46:01;;;;;;;22.55;5.05;;;;;;;5.58;100.00;96471.22;5014916;28;20412;-83
2023/12/22 09:48:28;;;;;;;31.17;6.03;;;;;;;5.58;100.00;96468.59;5015530;28;20758;-83
2023/12/22 09:50:55;;;;;;;34.90;6.35;;;;;;;5.56;100.00;96481.19;5015037;28;20396;-83
2023/12/22 09:53:21;;;;;;;23.75;4.45;;;;;;;5.59;100.00;96478.88;5015791;28;20409;-84
2023/12/22 09:55:49;;;;;;;21.83;4.63;;;;;;;5.61;100.00;96482.06;5016155;28;20480;-85
2023/12/22 09:58:16;;;;;;;27.58;4.68;;;;;;;5.62;100.00;96482.84;5014292;28;20834;-83
2023/12/22 10:00:43;;;;;;;29.58;5.47;;;;;;;5.61;100.00;96494.38;5017152;28;20399;-85
2023/12/22 10:03:12;;;;;;;34.60;5.27;;;;;;;5.62;100.00;96459.22;5021147;28;20760;-85
2023/12/22 10:05:40;;;;;;;21.10;4.30;;;;;;;5.67;100.00;96488.97;5016878;28;20416;-85
2023/12/22 10:08:10;;;;;;;29.05;5.03;;;;;;;5.65;100.00;96477.91;5014453;28;20393;-84
2023/12/22 10:10:37;;;;;;;28.92;4.93;;;;;;;5.66;100.00;96490.00;5014745;28;20393;-82
2023/12/22 10:13:07;;;;;;;33.25;5.78;;;;;;;5.68;100.00;96463.50;5014891;28;20389;-85
2023/12/22 10:15:33;;;;;;;32.70;5.65;;;;;;;5.68;100.00;96461.66;5015342;28;20400;-85
2023/12/22 10:18:00;;;;;;;28.45;4.60;;;;;;;5.71;100.00;96445.41;5019337;28;20436;-84
2023/12/22 10:20:27;;;;;;;15.20;4.22;;;;;;;5.75;100.00;96436.03;5024078;28;20392;-83
2023/12/22 10:22:53;;;;;;;30.73;5.78;;;;;;;5.73;100.00;96439.94;5026010;28;20399;-82
2023/12/22 10:25:27;;;;;;;32.30;5.75;;;;;;;5.70;100.00;96427.31;5024916;28;20426;-82
2023/12/22 10:27:53;;;;;;;18.63;4.20;;;;;;;5.75;100.00;96433.41;5020510;28;20492;-83
2023/12/22 10:30:20;;;;;;;26.45;4.75;;;;;;;5.78;100.00;96413.75;5022960;28;20893;-84
2023/12/22 10:32:46;;;;;;;27.63;4.43;;;;;;;5.78;100.00;96419.00;5018739;28;20420;-84
2023/12/22 10:35:13;;;;;;;33.20;5.03;;;;;;;5.79;100.00;96426.63;5015037;28;20404;-83
2023/12/22 10:37:40;;;;;;;28.00;5.40;;;;;;;5.78;100.00;96417.19;5016920;28;20447;-85
2023/12/22 10:40:09;;;;;;;30.98;4.88;;;;;;;5.80;100.00;96430.84;5018016;28;20397;-84
2023/12/22 10:42:36;;;;;;;26.92;5.00;;;;;;;5.79;100.00;96404.81;5017034;28;20882;-84
2023/12/22 10:45:02;;;;;;;27.67;4.78;;;;;;;5.80;100.00;96401.94;5023127;28;20415;-84
2023/12/22 10:47:29;;;;;;;20.20;4.10;;;;;;;5.84;100.00;96391.75;5035568;28;20871;-86
2023/12/22 10:49:55;;;;;;;23.57;5.00;;;;;;;5.82;100.00;96385.94;5019071;28;20459;-84
2023/12/22 10:52:21;;;;;;;21.23;4.25;;;;;;;5.84;100.00;96376.81;5015149;28;20451;-85
2023/12/22 10:54:50;;;;;;;24.20;4.70;;;;;;;5.83;100.00;96395.44;5014936;28;20411;-82
2023/12/22 10:57:19;;;;;;;19.23;3.92;;;;;;;5.84;100.00;96376.00;5018328;28;20396;-83
2023/12/22 10:59:47;;;;;;;19.80;4.20;;;;;;;5.81;100.00;96384.38;5009265;28;20447;-85
2023/12/22 11:02:17;;;;;;;13.55;3.28;;;;;;;5.86;100.00;96388.91;5010547;28;20397;-82
2023/12/22 11:04:55;;;;;;;17.88;4.03;;;;;;;5.81;100.00;96389.63;5016799;28;20428;-81
2023/12/22 11:07:24;;;;;;;18.30;4.15;;;;;;;5.83;100.00;96385.72;5013384;28;20463;-84
2023/12/22 11:09:55;;;;;;;16.85;3.10;;;;;;;5.80;100.00;96391.44;5015346;28;20451;-81
2023/12/22 11:12:23;;;;;;;14.80;3.25;;;;;;;5.80;100.00;96374.88;4995897;28;20399;-83
2023/12/22 11:14:52;;;;;;;11.15;3.10;;;;;;;5.74;100.00;96381.94;5032965;28;20498;-85
2023/12/22 11:17:21;;;;;;;10.20;3.00;;;;;;;5.73;100.00;96387.41;5033449;28;20410;-82
2023/12/22 11:19:49;;;;;;;14.02;3.10;;;;;;;5.69;100.00;96379.25;5016856;28;20397;-87
2023/12/22 11:22:17;;;;;;;15.38;3.17;;;;;;;5.66;100.00;96386.81;5020178;28;20492;-86
2023/12/22 11:24:45;;;;;;;13.55;3.05;;;;;;;5.64;100.00;96397.53;5022025;28;20412;-87